createdAt,value
2018-12-10T00:00:11.472Z,16.50
2018-12-10T00:02:39.931Z,14.13
2018-12-10T00:05:08.378Z,16.17
2018-12-10T00:07:36.839Z,12.40
2018-12-10T00:10:05.509Z,18.63
2018-12-10T00:12:33.928Z,17.17
2018-12-10T00:15:02.408Z,15.93
2018-12-10T00:17:30.836Z,16.63
2018-12-10T00:19:59.279Z,16.33
2018-12-10T00:22:27.846Z,15.80
2018-12-10T00:24:56.384Z,17.83
2018-12-10T00:27:25.756Z,16.80
2018-12-10T00:29:54.234Z,15.90
2018-12-10T00:32:22.692Z,17.07
2018-12-10T00:34:51.157Z,14.83
2018-12-10T00:37:19.713Z,13.93
2018-12-10T00:39:48.131Z,12.83
2018-12-10T00:42:16.568Z,11.83
2018-12-10T00:44:45.059Z,13.23
2018-12-10T00:47:13.496Z,15.13
2018-12-10T00:49:41.939Z,15.67
2018-12-10T00:52:10.394Z,15.40
2018-12-10T00:54:39.071Z,16.27
2018-12-10T00:57:07.576Z,17.07
2018-12-10T00:59:36.064Z,17.17
2018-12-10T01:02:04.470Z,16.73
2018-12-10T01:04:32.895Z,14.33
2018-12-10T01:07:01.361Z,15.70
2018-12-10T01:09:29.814Z,15.60
2018-12-10T01:11:58.236Z,17.93
2018-12-10T01:14:26.830Z,13.73
2018-12-10T01:16:55.268Z,14.77
2018-12-10T01:19:23.669Z,14.03
2018-12-10T01:21:52.244Z,14.20
2018-12-10T01:24:20.691Z,14.03
2018-12-10T01:26:49.114Z,13.60
2018-12-10T01:29:17.554Z,12.30
2018-12-10T01:31:45.981Z,14.43
2018-12-10T01:34:14.392Z,13.83
2018-12-10T01:36:42.873Z,15.83
2018-12-10T01:39:11.279Z,14.00
2018-12-10T01:41:39.707Z,14.50
2018-12-10T01:44:08.199Z,13.63
2018-12-10T01:46:36.636Z,14.13
2018-12-10T01:49:05.085Z,13.40
2018-12-10T01:51:33.569Z,14.67
2018-12-10T01:54:01.996Z,15.00
2018-12-10T01:56:30.421Z,16.20
2018-12-10T01:58:58.878Z,17.57
2018-12-10T02:01:27.304Z,14.67
2018-12-10T02:03:55.747Z,14.20
2018-12-10T02:06:24.432Z,14.60
2018-12-10T02:08:52.932Z,14.50
2018-12-10T02:11:21.377Z,13.57
2018-12-10T02:13:49.838Z,13.37
2018-12-10T02:16:18.245Z,10.83
2018-12-10T02:18:46.667Z,12.57
2018-12-10T02:21:15.172Z,12.53
2018-12-10T02:23:43.877Z,10.97
2018-12-10T02:26:12.831Z,12.53
2018-12-10T02:28:47.048Z,11.67
2018-12-10T02:31:15.509Z,10.80
2018-12-10T02:33:44.002Z,10.57
2018-12-10T02:36:12.451Z,10.57
2018-12-10T02:38:40.867Z,9.93
2018-12-10T02:41:09.310Z,10.27
2018-12-10T02:43:37.760Z,12.73
2018-12-10T02:46:06.181Z,10.17
2018-12-10T02:48:34.597Z,9.50
2018-12-10T02:51:03.119Z,10.93
2018-12-10T02:53:31.585Z,10.60
2018-12-10T02:56:00.009Z,11.97
2018-12-10T02:58:28.481Z,10.83
2018-12-10T03:00:56.925Z,11.30
2018-12-10T03:03:25.369Z,9.83
2018-12-10T03:05:53.825Z,10.17
2018-12-10T03:08:22.283Z,10.97
2018-12-10T03:10:50.764Z,22.10
2018-12-10T03:13:19.328Z,14.80
2018-12-10T03:15:47.780Z,10.80
2018-12-10T03:18:16.229Z,11.83
2018-12-10T03:20:44.733Z,12.97
2018-12-10T03:23:13.427Z,13.57
2018-12-10T03:25:42.140Z,14.60
2018-12-10T03:28:10.646Z,13.77
2018-12-10T03:30:39.081Z,10.90
2018-12-10T03:33:07.581Z,10.87
2018-12-10T03:35:36.057Z,10.53
2018-12-10T03:38:04.513Z,10.40
2018-12-10T03:40:32.991Z,11.17
2018-12-10T03:43:01.449Z,11.07
2018-12-10T03:45:29.937Z,10.30
2018-12-10T03:47:58.359Z,11.23
2018-12-10T03:50:26.832Z,13.03
2018-12-10T03:52:55.260Z,10.37
2018-12-10T03:55:23.672Z,12.23
2018-12-10T03:57:52.118Z,12.13
2018-12-10T04:00:20.597Z,12.40
2018-12-10T04:02:49.113Z,12.17
2018-12-10T04:05:17.594Z,10.30
2018-12-10T04:07:46.045Z,12.80
2018-12-10T04:10:14.493Z,10.67
2018-12-10T04:12:43.007Z,11.77
2018-12-10T04:15:11.457Z,10.87
2018-12-10T04:17:39.917Z,10.90
2018-12-10T04:20:08.371Z,11.20
2018-12-10T04:22:36.807Z,9.13
2018-12-10T04:25:05.397Z,10.47
2018-12-10T04:27:34.172Z,9.63
2018-12-10T04:30:02.646Z,11.03
2018-12-10T04:32:31.050Z,11.43
2018-12-10T04:34:59.518Z,11.10
2018-12-10T04:37:27.959Z,8.87
2018-12-10T04:39:56.372Z,9.23
2018-12-10T04:42:24.829Z,9.87
2018-12-10T04:44:53.264Z,11.20
2018-12-10T04:47:21.730Z,10.00
2018-12-10T04:49:50.335Z,8.07
2018-12-10T04:52:18.768Z,11.70
2018-12-10T04:54:47.213Z,10.07
2018-12-10T04:57:15.693Z,12.10
2018-12-10T04:59:44.111Z,9.60
2018-12-10T05:02:12.550Z,15.57
2018-12-10T05:04:41.061Z,12.57
2018-12-10T05:07:09.505Z,11.20
2018-12-10T05:09:38.356Z,11.17
2018-12-10T05:12:06.829Z,17.13
2018-12-10T05:14:35.332Z,17.40
2018-12-10T05:17:03.918Z,27.73
2018-12-10T05:19:32.394Z,20.80
2018-12-10T05:22:00.804Z,11.50
2018-12-10T05:24:29.266Z,16.70
2018-12-10T05:26:57.692Z,14.83
2018-12-10T05:29:26.142Z,17.07
2018-12-10T05:31:54.639Z,14.40
2018-12-10T05:34:23.085Z,12.63
2018-12-10T05:36:51.530Z,9.80
2018-12-10T05:39:20.024Z,11.27
2018-12-10T05:41:48.663Z,12.33
2018-12-10T05:44:17.128Z,14.63
2018-12-10T05:46:46.356Z,13.73
2018-12-10T05:49:14.793Z,12.20
2018-12-10T05:51:43.207Z,13.87
2018-12-10T05:54:11.695Z,12.33
2018-12-10T05:56:40.119Z,12.03
2018-12-10T05:59:08.580Z,15.73
2018-12-10T06:01:37.076Z,25.10
2018-12-10T06:04:05.803Z,17.13
2018-12-10T06:06:34.245Z,13.47
2018-12-10T06:09:02.728Z,14.07
2018-12-10T06:11:31.139Z,14.57
2018-12-10T06:13:59.575Z,12.67
2018-12-10T06:16:28.038Z,14.03
2018-12-10T06:18:56.490Z,12.83
2018-12-10T06:21:24.909Z,19.47
2018-12-10T06:23:53.396Z,21.73
2018-12-10T06:26:21.859Z,19.33
2018-12-10T06:28:50.676Z,17.83
2018-12-10T06:31:19.146Z,13.70
2018-12-10T06:33:48.553Z,13.47
2018-12-10T06:36:17.685Z,30.03
2018-12-10T06:38:46.184Z,27.70
2018-12-10T06:41:14.647Z,31.53
2018-12-10T06:43:43.090Z,29.50
2018-12-10T06:46:13.788Z,21.83
2018-12-10T06:48:42.229Z,32.07
2018-12-10T06:51:10.908Z,22.23
2018-12-10T06:53:41.548Z,26.37
2018-12-10T06:56:09.961Z,23.73
2018-12-10T06:58:38.642Z,25.37
2018-12-10T07:01:07.300Z,24.17
2018-12-10T07:03:36.728Z,45.80
2018-12-10T07:06:05.216Z,29.73
2018-12-10T07:08:33.709Z,23.13
2018-12-10T07:11:03.060Z,23.03
2018-12-10T07:13:31.577Z,18.40
2018-12-10T07:16:00.100Z,20.57
2018-12-10T07:18:30.330Z,18.50
2018-12-10T07:20:59.341Z,16.30
2018-12-10T07:23:28.783Z,15.30
2018-12-10T07:25:58.345Z,17.17
2018-12-10T07:28:27.362Z,12.17
2018-12-10T07:30:56.809Z,15.97
2018-12-10T07:33:25.282Z,13.03
2018-12-10T07:35:53.991Z,16.03
2018-12-10T07:38:22.832Z,14.80
2018-12-10T07:40:52.377Z,16.50
2018-12-10T07:43:21.753Z,14.97
2018-12-10T07:45:50.248Z,17.23
2018-12-10T07:48:18.723Z,15.43
2018-12-10T07:50:47.436Z,14.93
2018-12-10T07:53:15.948Z,14.87
2018-12-10T07:55:45.484Z,17.10
2018-12-10T07:58:14.340Z,15.67
2018-12-10T08:00:43.301Z,14.97
2018-12-10T08:03:11.750Z,13.60
2018-12-10T08:05:40.250Z,13.70
2018-12-10T08:08:08.753Z,15.07
2018-12-10T08:10:37.177Z,16.77
2018-12-10T08:13:05.600Z,15.30
2018-12-10T08:15:34.110Z,17.57
2018-12-10T08:18:02.560Z,16.80
2018-12-10T08:20:31.037Z,16.77
2018-12-10T08:23:00.950Z,14.27
2018-12-10T08:25:29.639Z,14.97
2018-12-10T08:28:00.061Z,16.70
2018-12-10T08:30:28.579Z,15.77
2018-12-10T08:32:57.265Z,15.00
2018-12-10T08:35:26.022Z,14.57
2018-12-10T08:37:54.605Z,15.97
2018-12-10T08:40:23.502Z,15.57
2018-12-10T08:42:52.071Z,20.50
2018-12-10T08:45:20.812Z,20.80
2018-12-10T08:47:50.433Z,21.80
2018-12-10T08:50:19.252Z,19.67
2018-12-10T08:52:47.735Z,66.13
2018-12-10T08:55:16.609Z,28.37
2018-12-10T08:57:45.050Z,25.80
2018-12-10T09:00:14.309Z,15.97
2018-12-10T09:02:42.720Z,20.50
2018-12-10T09:05:11.436Z,18.23
2018-12-10T09:07:41.062Z,19.23
2018-12-10T09:10:09.895Z,16.93
2018-12-10T09:12:46.953Z,17.60
2018-12-10T09:15:11.959Z,17.73
2018-12-10T09:17:40.413Z,17.50
2018-12-10T09:20:09.451Z,17.90
2018-12-10T09:22:40.782Z,16.37
2018-12-10T09:25:09.259Z,16.67
2018-12-10T09:27:40.030Z,17.43
2018-12-10T09:30:11.007Z,16.33
2018-12-10T09:32:40.158Z,19.50
2018-12-10T09:35:11.280Z,14.70
2018-12-10T09:37:40.385Z,13.23
2018-12-10T09:40:09.575Z,13.63
2018-12-10T09:42:41.045Z,16.60
2018-12-10T09:45:09.950Z,15.03
2018-12-10T09:47:39.054Z,14.83
2018-12-10T09:50:11.172Z,17.47
2018-12-10T09:52:42.970Z,14.73
2018-12-10T09:55:13.740Z,13.30
2018-12-10T09:57:42.255Z,13.63
2018-12-10T10:00:11.110Z,16.00
2018-12-10T10:02:40.669Z,13.80
2018-12-10T10:05:09.542Z,13.80
2018-12-10T10:07:40.589Z,13.77
2018-12-10T10:10:11.325Z,14.83
2018-12-10T10:12:40.220Z,13.13
2018-12-10T10:15:10.030Z,12.73
2018-12-10T10:17:38.502Z,12.77
2018-12-10T10:20:09.748Z,11.20
2018-12-10T10:22:38.236Z,8.07
2018-12-10T10:25:07.191Z,8.50
2018-12-10T10:27:36.309Z,10.13
2018-12-10T10:30:05.205Z,8.00
2018-12-10T10:32:34.455Z,5.97
2018-12-10T10:35:03.364Z,5.63
2018-12-10T10:37:35.212Z,4.83
2018-12-10T10:40:04.630Z,3.23
2018-12-10T10:42:33.278Z,2.00
2018-12-10T10:45:01.755Z,3.83
2018-12-10T10:47:30.433Z,1.17
2018-12-10T10:49:58.845Z,3.30
2018-12-10T10:52:33.310Z,3.90
2018-12-10T10:55:00.945Z,1.10
2018-12-10T10:57:31.365Z,1.13
2018-12-10T10:59:59.895Z,5.00
2018-12-10T11:02:42.220Z,1.00
2018-12-10T11:05:11.147Z,2.33
2018-12-10T11:07:41.486Z,2.90
2018-12-10T11:10:12.427Z,2.37
2018-12-10T11:12:40.818Z,1.57
2018-12-10T11:15:11.525Z,1.07
2018-12-10T11:17:41.190Z,20.77
2018-12-10T11:20:09.746Z,1.73
2018-12-10T11:22:40.347Z,6.63
2018-12-10T11:25:09.238Z,1.50
2018-12-10T11:27:39.562Z,0.30
2018-12-10T11:30:08.723Z,1.67
2018-12-10T11:32:37.588Z,1.00
2018-12-10T11:35:07.244Z,2.17
2018-12-10T11:37:37.426Z,0.77
2018-12-10T11:40:08.604Z,1.13
2018-12-10T11:42:37.049Z,4.13
2018-12-10T11:45:06.084Z,1.17
2018-12-10T11:47:35.011Z,3.00
2018-12-10T11:50:04.769Z,1.17
2018-12-10T11:52:36.048Z,1.17
2018-12-10T11:55:05.269Z,1.23
2018-12-10T11:57:34.556Z,1.23
2018-12-10T12:00:03.061Z,0.90
2018-12-10T12:02:33.402Z,0.40
2018-12-10T12:05:02.350Z,1.37
2018-12-10T12:07:31.241Z,1.10
2018-12-10T12:10:00.399Z,0.40
2018-12-10T12:12:29.063Z,2.20
2018-12-10T12:14:57.612Z,1.70
2018-12-10T12:17:26.067Z,0.20
2018-12-10T12:19:54.901Z,1.30
2018-12-10T12:22:23.362Z,2.77
2018-12-10T12:24:52.010Z,2.30
2018-12-10T12:27:20.432Z,2.10
2018-12-10T12:29:48.936Z,1.20
2018-12-10T12:32:17.633Z,3.53
2018-12-10T12:34:46.312Z,0.30
2018-12-10T12:37:14.813Z,0.87
2018-12-10T12:39:43.265Z,1.50
2018-12-10T12:42:11.685Z,1.70
2018-12-10T12:44:40.145Z,0.30
2018-12-10T12:47:08.948Z,1.37
2018-12-10T12:49:37.368Z,0.67
2018-12-10T12:52:05.851Z,2.30
2018-12-10T12:54:34.550Z,1.83
2018-12-10T12:57:03.335Z,1.27
2018-12-10T12:59:31.804Z,0.57
2018-12-10T13:02:00.267Z,1.57
2018-12-10T13:04:30.779Z,0.57
2018-12-10T13:06:59.271Z,11.20
2018-12-10T13:09:27.953Z,2.17
2018-12-10T13:11:56.903Z,2.27
2018-12-10T13:14:25.409Z,0.43
2018-12-10T13:16:53.896Z,0.23
2018-12-10T13:19:22.577Z,1.43
2018-12-10T13:21:51.504Z,1.53
2018-12-10T13:24:21.048Z,0.57
2018-12-10T13:26:50.503Z,1.17
2018-12-10T13:29:19.166Z,0.10
2018-12-10T13:31:49.394Z,0.60
2018-12-10T13:34:17.800Z,2.00
2018-12-10T13:36:46.305Z,0.57
2018-12-10T13:39:14.979Z,1.80
2018-12-10T13:41:43.435Z,0.63
2018-12-10T13:44:11.925Z,1.10
2018-12-10T13:46:40.791Z,0.60
2018-12-10T13:49:09.249Z,0.77
2018-12-10T13:51:38.796Z,1.60
2018-12-10T13:54:07.262Z,1.13
2018-12-10T13:56:36.794Z,0.70
2018-12-10T13:59:05.890Z,3.17
2018-12-10T14:01:34.332Z,1.80
2018-12-10T14:04:05.031Z,0.43
2018-12-10T14:06:33.741Z,2.93
2018-12-10T14:09:08.018Z,1.80
2018-12-10T14:11:37.706Z,0.83
2018-12-10T14:14:06.168Z,1.63
2018-12-10T14:16:36.117Z,1.27
2018-12-10T14:19:07.523Z,1.33
2018-12-10T14:21:38.486Z,2.00
2018-12-10T14:24:07.388Z,0.80
2018-12-10T14:26:38.262Z,0.60
2018-12-10T14:29:07.309Z,0.30
2018-12-10T14:31:36.395Z,0.40
2018-12-10T14:34:11.609Z,8.33
2018-12-10T14:36:41.719Z,1.80
2018-12-10T14:39:10.525Z,0.10
2018-12-10T14:41:39.035Z,0.43
2018-12-10T14:44:07.537Z,1.60
2018-12-10T14:46:35.980Z,0.40
2018-12-10T14:49:05.585Z,0.10
2018-12-10T14:51:34.388Z,0.87
2018-12-10T14:54:03.824Z,0.93
2018-12-10T14:56:32.399Z,0.10
2018-12-10T14:59:03.514Z,0.73
2018-12-10T15:01:32.745Z,0.43
2018-12-10T15:04:01.509Z,0.40
2018-12-10T15:06:30.381Z,0.20
2018-12-10T15:08:58.872Z,1.27
2018-12-10T15:11:27.322Z,1.03
2018-12-10T15:13:55.766Z,0.67
2018-12-10T15:16:24.392Z,1.13
2018-12-10T15:18:54.748Z,1.90
2018-12-10T15:21:23.270Z,1.20
2018-12-10T15:23:51.823Z,4.67
2018-12-10T15:26:20.709Z,2.87
2018-12-10T15:28:50.495Z,1.27
2018-12-10T15:31:18.986Z,1.83
2018-12-10T15:33:48.037Z,1.83
2018-12-10T15:36:16.794Z,1.20
2018-12-10T15:38:45.363Z,2.87
2018-12-10T15:41:14.093Z,2.23
2018-12-10T15:43:43.360Z,8.20
2018-12-10T15:46:12.762Z,4.40
2018-12-10T15:48:41.502Z,4.03
2018-12-10T15:51:10.255Z,6.40
2018-12-10T15:53:39.482Z,2.43
2018-12-10T15:56:08.633Z,1.77
2018-12-10T15:58:37.408Z,4.43
2018-12-10T16:01:05.906Z,4.63
2018-12-10T16:03:34.494Z,7.10
2018-12-10T16:06:03.037Z,8.37
2018-12-10T16:08:31.520Z,10.80
2018-12-10T16:11:00.141Z,26.77
2018-12-10T16:13:28.683Z,14.43
2018-12-10T16:15:57.485Z,10.03
2018-12-10T16:18:26.940Z,9.93
2018-12-10T16:20:55.490Z,8.73
2018-12-10T16:23:24.039Z,6.07
2018-12-10T16:25:53.350Z,7.47
2018-12-10T16:28:21.875Z,10.03
2018-12-10T16:30:50.639Z,8.00
2018-12-10T16:33:19.302Z,7.57
2018-12-10T16:35:48.549Z,9.03
2018-12-10T16:38:17.468Z,7.93
2018-12-10T16:40:46.348Z,8.17
2018-12-10T16:43:15.226Z,11.53
2018-12-10T16:45:44.364Z,10.57
2018-12-10T16:48:13.973Z,9.03
2018-12-10T16:50:43.034Z,9.37
2018-12-10T16:53:12.608Z,9.70
2018-12-10T16:55:41.443Z,10.27
2018-12-10T16:58:10.867Z,10.40
2018-12-10T17:00:39.898Z,12.23
2018-12-10T17:03:08.359Z,12.47
2018-12-10T17:05:36.835Z,10.60
2018-12-10T17:08:05.270Z,9.13
2018-12-10T17:10:34.108Z,10.53
2018-12-10T17:13:02.591Z,11.27
2018-12-10T17:15:31.047Z,6.70
2018-12-10T17:17:59.458Z,7.77
2018-12-10T17:20:28.103Z,8.13
2018-12-10T17:22:56.921Z,10.53
2018-12-10T17:25:25.810Z,10.47
2018-12-10T17:27:54.286Z,8.13
2018-12-10T17:30:22.817Z,7.20
2018-12-10T17:32:51.231Z,5.40
2018-12-10T17:35:19.700Z,4.03
2018-12-10T17:37:48.499Z,1.73
2018-12-10T17:40:16.975Z,0.63
2018-12-10T17:42:45.436Z,0.73
2018-12-10T17:45:14.816Z,0.30
2018-12-10T17:47:43.333Z,1.90
2018-12-10T17:50:11.804Z,0.70
2018-12-10T17:52:40.322Z,0.47
2018-12-10T17:55:10.278Z,0.60
2018-12-10T17:57:38.822Z,1.73
2018-12-10T18:00:09.324Z,1.00
2018-12-10T18:02:37.768Z,1.37
2018-12-10T18:05:06.503Z,1.63
2018-12-10T18:07:35.057Z,1.20
2018-12-10T18:10:04.041Z,0.93
2018-12-10T18:12:32.615Z,3.37
2018-12-10T18:15:01.162Z,3.23
2018-12-10T18:17:29.660Z,2.47
2018-12-10T18:19:58.153Z,3.87
2018-12-10T18:22:26.766Z,11.37
2018-12-10T18:24:55.321Z,58.67
2018-12-10T18:27:23.871Z,48.87
2018-12-10T18:29:52.416Z,11.40
2018-12-10T18:32:20.959Z,4.63
2018-12-10T18:34:49.494Z,8.23
2018-12-10T18:37:18.075Z,4.10
2018-12-10T18:39:46.620Z,2.37
2018-12-10T18:42:15.140Z,4.00
2018-12-10T18:44:43.936Z,3.83
2018-12-10T18:47:12.460Z,14.43
2018-12-10T18:49:40.993Z,8.10
2018-12-10T18:52:09.464Z,2.00
2018-12-10T18:54:38.013Z,4.07
2018-12-10T18:57:06.500Z,13.47
2018-12-10T18:59:35.129Z,8.33
2018-12-10T19:02:03.601Z,6.53
2018-12-10T19:04:32.179Z,5.83
2018-12-10T19:07:01.073Z,7.77
2018-12-10T19:09:29.684Z,10.17
2018-12-10T19:11:59.152Z,31.27
2018-12-10T19:14:28.034Z,19.73
2018-12-10T19:16:56.574Z,12.07
2018-12-10T19:19:25.456Z,6.17
2018-12-10T19:21:55.008Z,6.73
2018-12-10T19:24:24.007Z,8.57
2018-12-10T19:26:52.557Z,7.53
2018-12-10T19:29:21.093Z,8.57
2018-12-10T19:31:49.774Z,9.03
2018-12-10T19:34:18.356Z,8.30
2018-12-10T19:36:46.922Z,7.03
2018-12-10T19:39:15.451Z,6.67
2018-12-10T19:41:44.149Z,6.83
2018-12-10T19:44:12.700Z,9.23
2018-12-10T19:46:41.324Z,7.77
2018-12-10T19:49:09.954Z,6.70
2018-12-10T19:51:38.708Z,7.93
2018-12-10T19:54:07.397Z,7.50
2018-12-10T19:56:36.029Z,14.20
2018-12-10T19:59:04.617Z,8.27
2018-12-10T20:01:33.217Z,12.20
2018-12-10T20:04:01.858Z,8.73
2018-12-10T20:06:32.546Z,9.50
2018-12-10T20:09:01.052Z,11.13
2018-12-10T20:11:31.277Z,10.73
2018-12-10T20:13:59.834Z,22.87
2018-12-10T20:16:29.189Z,12.70
2018-12-10T20:18:57.796Z,13.47
2018-12-10T20:21:26.287Z,10.53
2018-12-10T20:23:54.814Z,10.47
2018-12-10T20:26:23.657Z,9.60
2018-12-10T20:28:52.275Z,9.03
2018-12-10T20:31:20.807Z,8.70
2018-12-10T20:33:49.391Z,10.20
2018-12-10T20:36:18.373Z,10.17
2018-12-10T20:38:46.951Z,11.80
2018-12-10T20:41:15.582Z,10.73
2018-12-10T20:43:44.194Z,17.10
2018-12-10T20:46:12.746Z,12.83
2018-12-10T20:48:41.325Z,17.60
2018-12-10T20:51:09.802Z,12.67
2018-12-10T20:53:38.882Z,12.10
2018-12-10T20:56:07.647Z,10.70
2018-12-10T20:58:36.691Z,11.23
2018-12-10T21:01:05.678Z,16.93
2018-12-10T21:03:34.405Z,12.17
2018-12-10T21:06:08.981Z,10.90
2018-12-10T21:08:37.564Z,11.70
2018-12-10T21:11:06.170Z,9.90
2018-12-10T21:13:35.804Z,9.80
2018-12-10T21:16:04.399Z,7.93
2018-12-10T21:18:32.938Z,8.70
2018-12-10T21:21:01.561Z,6.03
2018-12-10T21:23:30.198Z,6.73
2018-12-10T21:26:14.862Z,35.20
2018-12-10T21:28:44.294Z,30.47
2018-12-10T21:31:12.938Z,11.80
2018-12-10T21:33:41.594Z,10.13
2018-12-10T21:36:10.142Z,10.50
2018-12-10T21:38:38.912Z,11.53
2018-12-10T21:41:07.503Z,11.40
2018-12-10T21:43:36.455Z,11.37
2018-12-10T21:46:05.252Z,11.20
2018-12-10T21:48:34.079Z,8.87
2018-12-10T21:51:02.573Z,9.90
2018-12-10T21:53:31.455Z,10.80
2018-12-10T21:55:59.925Z,11.83
2018-12-10T21:58:28.335Z,10.93
2018-12-10T22:00:56.827Z,10.90
2018-12-10T22:03:25.328Z,11.77
2018-12-10T22:05:53.812Z,10.73
2018-12-10T22:08:22.298Z,14.87
2018-12-10T22:10:51.476Z,18.30
2018-12-10T22:13:20.827Z,20.13
2018-12-10T22:15:49.362Z,18.20
2018-12-10T22:18:17.905Z,22.03
2018-12-10T22:20:46.590Z,13.43
2018-12-10T22:23:15.079Z,13.47
2018-12-10T22:25:43.595Z,10.30
2018-12-10T22:28:12.309Z,13.90
2018-12-10T22:30:41.019Z,14.60
2018-12-10T22:33:09.519Z,13.67
2018-12-10T22:35:37.981Z,12.20
2018-12-10T22:38:06.912Z,13.77
2018-12-10T22:40:35.406Z,14.40
2018-12-10T22:43:03.867Z,15.10
2018-12-10T22:45:32.326Z,11.33
2018-12-10T22:48:00.844Z,14.30
2018-12-10T22:50:29.441Z,13.50
2018-12-10T22:52:57.900Z,19.13
2018-12-10T22:55:26.399Z,19.97
2018-12-10T22:57:54.933Z,16.13
2018-12-10T23:00:25.537Z,12.83
2018-12-10T23:02:54.033Z,11.17
2018-12-10T23:05:22.470Z,13.57
2018-12-10T23:07:50.930Z,13.77
2018-12-10T23:10:20.383Z,12.27
2018-12-10T23:12:48.811Z,13.67
2018-12-10T23:15:18.061Z,8.70
2018-12-10T23:17:46.594Z,12.13
2018-12-10T23:20:15.285Z,10.00
2018-12-10T23:22:43.973Z,12.00
2018-12-10T23:25:14.170Z,7.97
2018-12-10T23:27:43.856Z,8.70
2018-12-10T23:30:13.160Z,8.20
2018-12-10T23:32:48.607Z,6.53
2018-12-10T23:35:18.220Z,6.97
2018-12-10T23:37:46.649Z,8.20
2018-12-10T23:40:15.147Z,5.13
2018-12-10T23:45:45.293Z,5.73
2018-12-10T23:48:14.006Z,4.27
2018-12-10T23:50:42.425Z,6.73
2018-12-10T23:53:10.889Z,5.90
2018-12-10T23:55:39.347Z,8.20
2018-12-10T23:58:07.802Z,5.70
